createdAt,value
2023-04-21T00:01:36.026Z,100582.63
2023-04-21T00:04:11.114Z,100577.78
2023-04-21T00:06:48.957Z,100579.00
2023-04-21T00:09:20.144Z,100579.81
2023-04-21T00:11:54.437Z,100580.22
2023-04-21T00:14:26.421Z,100572.94
2023-04-21T00:16:59.409Z,100571.75
2023-04-21T00:19:37.788Z,100566.50
2023-04-21T00:22:17.164Z,100568.91
2023-04-21T00:24:52.560Z,100562.06
2023-04-21T00:27:33.732Z,100565.28
2023-04-21T00:30:10.534Z,100561.66
2023-04-21T00:32:51.174Z,100555.63
2023-04-21T00:35:36.437Z,100558.84
2023-04-21T00:38:08.089Z,100556.41
2023-04-21T00:40:45.218Z,100553.19
2023-04-21T00:43:23.245Z,100553.22
2023-04-21T00:46:02.972Z,100549.19
2023-04-21T00:48:36.029Z,100549.56
2023-04-21T00:51:09.377Z,100541.91
2023-04-21T00:53:39.343Z,100539.09
2023-04-21T00:56:10.848Z,100547.94
2023-04-21T00:58:45.674Z,100550.78
2023-04-21T01:01:19.218Z,100550.78
2023-04-21T01:03:56.036Z,100550.78
2023-04-21T01:06:37.957Z,100548.34
2023-04-21T01:09:12.793Z,100551.16
2023-04-21T01:12:05.917Z,100549.59
2023-04-21T01:14:40.749Z,100546.78
2023-04-21T01:17:18.847Z,100550.44
2023-04-21T01:19:56.580Z,100554.47
2023-04-21T01:22:33.210Z,100557.72
2023-04-21T01:25:03.700Z,100560.53
2023-04-21T01:27:35.899Z,100552.84
2023-04-21T01:30:06.802Z,100551.66
2023-04-21T01:32:35.373Z,100546.41
2023-04-21T01:35:14.220Z,100544.03
2023-04-21T01:37:53.105Z,100540.38
2023-04-21T01:40:25.466Z,100534.75
2023-04-21T01:43:04.331Z,100545.22
2023-04-21T01:45:39.080Z,100542.84
2023-04-21T01:48:22.942Z,100542.84
2023-04-21T01:50:58.056Z,100531.97
2023-04-21T01:53:33.224Z,100535.59
2023-04-21T01:56:07.837Z,100537.19
2023-04-21T01:58:40.992Z,100535.59
2023-04-21T02:01:16.754Z,100533.56
2023-04-21T02:03:51.885Z,100533.16
2023-04-21T02:06:25.056Z,100527.56
2023-04-21T02:08:57.529Z,100531.56
2023-04-21T02:11:36.030Z,100524.75
2023-04-21T02:14:12.172Z,100532.78
2023-04-21T02:16:51.450Z,100535.59
2023-04-21T02:19:25.076Z,100534.00
2023-04-21T02:22:00.983Z,100536.41
2023-04-21T02:24:30.846Z,100538.84
2023-04-21T02:27:02.112Z,100537.22
2023-04-21T02:29:38.312Z,100535.19
2023-04-21T02:32:22.290Z,100539.66
2023-04-21T02:34:56.315Z,100542.09
2023-04-21T02:37:30.619Z,100537.22
2023-04-21T02:40:06.610Z,100538.00
2023-04-21T02:42:42.215Z,100538.41
2023-04-21T02:45:17.435Z,100537.19
2023-04-21T02:47:47.770Z,100540.00
2023-04-21T02:50:20.297Z,100535.56
2023-04-21T02:52:55.718Z,100544.81
2023-04-21T02:55:28.988Z,100554.06
2023-04-21T02:57:59.355Z,100563.31
2023-04-21T03:00:34.922Z,100558.03
2023-04-21T03:03:14.588Z,100568.50
2023-04-21T03:05:51.012Z,100566.50
2023-04-21T03:08:24.172Z,100565.22
2023-04-21T03:10:54.744Z,100562.06
2023-04-21T03:13:24.446Z,100566.78
2023-04-21T03:15:57.549Z,100568.81
2023-04-21T03:18:28.247Z,100563.97
2023-04-21T03:21:07.247Z,100568.41
2023-04-21T03:23:40.795Z,100572.41
2023-04-21T03:26:13.595Z,100572.41
2023-04-21T03:28:46.344Z,100574.44
2023-04-21T03:31:20.200Z,100571.22
2023-04-21T03:33:55.325Z,100569.59
2023-04-21T03:36:28.114Z,100568.34
2023-04-21T03:39:06.255Z,100574.41
2023-04-21T03:41:52.091Z,100573.97
2023-04-21T03:44:30.457Z,100565.09
2023-04-21T03:47:03.222Z,100566.34
2023-04-21T03:49:37.440Z,100569.56
2023-04-21T03:52:12.196Z,100574.41
2023-04-21T03:54:47.386Z,100565.47
2023-04-21T03:57:15.430Z,100557.88
2023-04-21T03:59:46.486Z,100562.66
2023-04-21T04:02:23.333Z,100565.47
2023-04-21T04:04:58.845Z,100557.88
2023-04-21T04:07:35.425Z,100567.13
2023-04-21T04:10:06.311Z,100565.13
2023-04-21T04:12:38.471Z,100570.75
2023-04-21T04:15:09.343Z,100571.13
2023-04-21T04:17:44.963Z,100568.72
2023-04-21T04:20:17.936Z,100575.94
2023-04-21T04:22:49.139Z,100584.03
2023-04-21T04:25:22.192Z,100573.91
2023-04-21T04:27:55.696Z,100581.13
2023-04-21T04:30:28.496Z,100587.22
2023-04-21T04:33:03.940Z,100583.19
2023-04-21T04:35:36.977Z,100591.25
2023-04-21T04:38:07.549Z,100590.41
2023-04-21T04:40:46.139Z,100588.00
2023-04-21T04:43:26.015Z,100588.00
2023-04-21T04:45:56.086Z,100598.09
2023-04-21T04:48:31.410Z,100597.28
2023-04-21T04:51:01.719Z,100598.91
2023-04-21T04:53:31.541Z,100601.31
2023-04-21T04:56:07.393Z,100605.34
2023-04-21T04:58:37.891Z,100603.69
2023-04-21T05:01:17.753Z,100613.38
2023-04-21T05:03:50.016Z,100606.94
2023-04-21T05:06:22.112Z,100609.75
2023-04-21T05:08:56.136Z,100609.34
2023-04-21T05:11:33.722Z,100615.38
2023-04-21T05:14:11.474Z,100622.63
2023-04-21T05:16:45.876Z,100627.47
2023-04-21T05:19:18.512Z,100627.44
2023-04-21T05:21:51.833Z,100625.84
2023-04-21T05:24:25.354Z,100631.06
2023-04-21T05:26:57.340Z,100633.50
2023-04-21T05:29:27.309Z,100629.94
2023-04-21T05:31:57.405Z,100633.94
2023-04-21T05:34:25.088Z,100633.09
2023-04-21T05:36:56.351Z,100637.97
2023-04-21T05:39:28.406Z,100638.41
2023-04-21T05:42:04.122Z,100638.00
2023-04-21T05:44:42.380Z,100638.81
2023-04-21T05:47:17.985Z,100646.84
2023-04-21T05:49:54.802Z,100648.84
2023-04-21T05:52:30.686Z,100646.03
2023-04-21T05:55:06.135Z,100649.69
2023-04-21T05:57:41.344Z,100648.50
2023-04-21T06:00:14.608Z,100646.91
2023-04-21T06:02:51.534Z,100649.44
2023-04-21T06:05:30.559Z,100656.25
2023-04-21T06:07:58.506Z,100651.38
2023-04-21T06:10:34.198Z,100660.75
2023-04-21T06:13:09.584Z,100650.78
2023-04-21T06:15:45.634Z,100648.34
2023-04-21T06:18:17.280Z,100645.94
2023-04-21T06:20:54.397Z,100652.41
2023-04-21T06:23:27.564Z,100652.81
2023-04-21T06:26:06.840Z,100649.97
2023-04-21T06:28:35.664Z,100644.81
2023-04-21T06:31:06.877Z,100646.81
2023-04-21T06:33:42.333Z,100647.97
2023-04-21T06:36:12.481Z,100640.75
2023-04-21T06:38:43.089Z,100651.16
2023-04-21T06:41:10.890Z,100645.53
2023-04-21T06:43:41.011Z,100647.63
2023-04-21T06:46:12.164Z,100657.69
2023-04-21T06:48:40.094Z,100659.69
2023-04-21T06:51:07.478Z,100654.47
2023-04-21T06:53:38.427Z,100664.97
2023-04-21T06:56:11.097Z,100660.94
2023-04-21T06:58:46.638Z,100669.78
2023-04-21T07:01:20.727Z,100660.50
2023-04-21T07:03:53.283Z,100663.31
2023-04-21T07:06:22.290Z,100659.66
2023-04-21T07:08:50.218Z,100658.03
2023-04-21T07:11:29.482Z,100651.59
2023-04-21T07:14:01.982Z,100667.72
2023-04-21T07:16:40.450Z,100664.50
2023-04-21T07:19:08.550Z,100667.31
2023-04-21T07:21:36.428Z,100678.22
2023-04-21T07:24:09.350Z,100677.41
2023-04-21T07:26:45.300Z,100683.06
2023-04-21T07:29:19.439Z,100682.63
2023-04-21T07:31:48.550Z,100682.63
2023-04-21T07:34:20.753Z,100683.06
2023-04-21T07:36:53.981Z,100687.09
2023-04-21T07:39:23.932Z,100689.53
2023-04-21T07:41:56.662Z,100687.88
2023-04-21T07:44:30.157Z,100685.47
2023-04-21T07:47:05.707Z,100684.66
2023-04-21T07:49:38.881Z,100691.91
2023-04-21T07:52:16.955Z,100685.09
2023-04-21T07:54:47.307Z,100691.56
2023-04-21T07:57:18.420Z,100701.25
2023-04-21T07:59:52.746Z,100700.09
2023-04-21T08:02:27.944Z,100703.34
2023-04-21T08:05:07.371Z,100706.97
2023-04-21T08:07:46.624Z,100704.50
2023-04-21T08:10:24.859Z,100706.97
2023-04-21T08:13:06.567Z,100711.50
2023-04-21T08:15:37.732Z,100710.72
2023-04-21T08:18:22.786Z,100713.22
2023-04-21T08:20:55.699Z,100714.41
2023-04-21T08:23:34.007Z,100715.50
2023-04-21T08:26:12.705Z,100711.53
2023-04-21T08:28:45.964Z,100726.81
2023-04-21T08:31:16.305Z,100720.34
2023-04-21T08:33:58.062Z,100720.41
2023-04-21T08:36:32.236Z,100721.94
2023-04-21T08:39:08.441Z,100726.41
2023-04-21T08:41:47.789Z,100728.38
2023-04-21T08:44:27.971Z,100728.81
2023-04-21T08:47:03.330Z,100734.03
2023-04-21T08:49:42.735Z,100726.38
2023-04-21T08:52:20.872Z,100734.03
2023-04-21T08:54:52.614Z,100738.47
2023-04-21T08:57:28.784Z,100742.44
2023-04-21T09:00:07.358Z,100740.03
2023-04-21T09:03:04.424Z,100731.94
2023-04-21T09:05:43.074Z,100736.47
2023-04-21T09:08:17.548Z,100734.50
2023-04-21T09:10:53.993Z,100738.09
2023-04-21T09:13:36.574Z,100734.91
2023-04-21T09:16:25.232Z,100738.88
2023-04-21T09:19:01.339Z,100736.47
2023-04-21T09:21:50.852Z,100732.03
2023-04-21T09:24:23.561Z,100735.22
2023-04-21T09:27:06.059Z,100737.28
2023-04-21T09:29:46.206Z,100739.31
2023-04-21T09:32:30.777Z,100736.50
2023-04-21T09:35:07.751Z,100733.22
2023-04-21T09:37:48.808Z,100733.25
2023-04-21T09:40:26.464Z,100728.81
2023-04-21T09:43:02.883Z,100726.81
2023-04-21T09:45:40.503Z,100737.69
2023-04-21T09:48:22.285Z,100734.13
2023-04-21T09:53:39.162Z,100724.94
2023-04-21T09:56:17.118Z,100733.31
2023-04-21T09:59:01.363Z,100731.28
2023-04-21T10:01:39.094Z,100728.06
2023-04-21T10:04:13.962Z,100729.66
2023-04-21T10:06:46.089Z,100726.91
2023-04-21T10:09:21.557Z,100720.47
2023-04-21T10:11:59.520Z,100714.47
2023-04-21T10:14:42.258Z,100718.97
2023-04-21T10:17:20.799Z,100710.09
2023-04-21T10:19:57.475Z,100710.53
2023-04-21T10:22:36.278Z,100708.91
2023-04-21T10:25:17.045Z,100710.97
2023-04-21T10:27:59.030Z,100707.72
2023-04-21T10:30:34.632Z,100698.81
2023-04-21T10:33:12.534Z,100710.53
2023-04-21T10:36:04.075Z,100708.94
2023-04-21T10:38:43.913Z,100706.50
2023-04-21T10:41:31.276Z,100705.78
2023-04-21T10:44:19.211Z,100700.94
2023-04-21T10:46:47.930Z,100706.97
2023-04-21T10:49:30.300Z,100709.78
2023-04-21T10:52:02.726Z,100707.75
2023-04-21T10:54:42.102Z,100708.16
2023-04-21T10:57:22.003Z,100699.66
2023-04-21T10:59:52.319Z,100709.34
2023-04-21T11:02:22.130Z,100700.91
2023-04-21T11:04:58.211Z,100702.09
2023-04-21T11:07:26.353Z,100701.72
2023-04-21T11:10:11.891Z,100702.09
2023-04-21T11:12:40.882Z,100697.66
2023-04-21T11:15:14.358Z,100696.44
2023-04-21T11:17:47.212Z,100700.09
2023-04-21T11:20:18.078Z,100711.81
2023-04-21T11:22:52.828Z,100700.91
2023-04-21T11:25:23.023Z,100703.34
2023-04-21T11:27:59.954Z,100700.13
2023-04-21T11:30:34.864Z,100698.06
2023-04-21T11:33:02.969Z,100695.25
2023-04-21T11:35:31.724Z,100700.94
2023-04-21T11:38:08.153Z,100702.09
2023-04-21T11:40:49.015Z,100690.78
2023-04-21T11:43:20.019Z,100700.09
2023-04-21T11:45:53.658Z,100692.81
2023-04-21T11:48:24.269Z,100697.31
2023-04-21T11:50:59.714Z,100696.47
2023-04-21T11:53:32.489Z,100693.69
2023-04-21T11:56:02.464Z,100697.72
2023-04-21T11:58:31.394Z,100694.50
2023-04-21T12:00:59.193Z,100701.34
2023-04-21T12:03:33.257Z,100702.19
2023-04-21T12:06:07.514Z,100696.88
2023-04-21T12:08:40.868Z,100697.69
2023-04-21T12:11:11.823Z,100695.66
2023-04-21T12:13:44.961Z,100689.63
2023-04-21T12:16:15.939Z,100695.66
2023-04-21T12:19:00.811Z,100696.47
2023-04-21T12:21:30.805Z,100706.19
2023-04-21T12:24:05.720Z,100704.16
2023-04-21T12:26:42.577Z,100695.28
2023-04-21T12:29:16.489Z,100696.88
2023-04-21T12:31:47.890Z,100697.31
2023-04-21T12:34:23.202Z,100695.69
2023-04-21T12:37:03.030Z,100698.13
2023-04-21T12:39:42.206Z,100709.00
2023-04-21T12:42:23.374Z,100709.38
2023-04-21T12:45:05.369Z,100702.13
2023-04-21T12:47:45.438Z,100692.06
2023-04-21T12:50:24.005Z,100698.56
2023-04-21T12:53:00.948Z,100700.16
2023-04-21T12:55:39.097Z,100694.88
2023-04-21T12:58:17.658Z,100685.22
2023-04-21T13:00:56.513Z,100684.88
2023-04-21T13:03:32.739Z,100682.78
2023-04-21T13:06:06.966Z,100689.22
2023-04-21T13:08:37.871Z,100678.38
2023-04-21T13:11:16.026Z,100668.66
2023-04-21T13:13:54.466Z,100676.75
2023-04-21T13:16:30.234Z,100682.78
2023-04-21T13:19:06.577Z,100671.09
2023-04-21T13:21:38.246Z,100674.72
2023-04-21T13:24:14.859Z,100676.34
2023-04-21T13:26:45.265Z,100667.91
2023-04-21T13:29:18.178Z,100666.69
2023-04-21T13:31:48.345Z,100677.22
2023-04-21T13:34:19.529Z,100667.94
2023-04-21T13:36:52.567Z,100673.16
2023-04-21T13:39:23.153Z,100677.22
2023-04-21T13:41:58.619Z,100665.53
2023-04-21T13:44:32.331Z,100662.28
2023-04-21T13:47:00.909Z,100663.97
2023-04-21T13:49:32.875Z,100661.53
2023-04-21T13:52:08.957Z,100663.16
2023-04-21T13:54:38.988Z,100656.28
2023-04-21T13:57:06.680Z,100651.06
2023-04-21T13:59:37.416Z,100657.50
2023-04-21T14:02:13.024Z,100649.03
2023-04-21T14:04:43.813Z,100652.66
2023-04-21T14:07:19.632Z,100654.69
2023-04-21T14:09:52.950Z,100654.25
2023-04-21T14:12:23.085Z,100646.59
2023-04-21T14:14:58.698Z,100642.56
2023-04-21T14:17:44.001Z,100640.09
2023-04-21T14:20:14.049Z,100637.28
2023-04-21T14:22:44.998Z,100633.56
2023-04-21T14:25:17.478Z,100635.63
2023-04-21T14:27:45.214Z,100623.13
2023-04-21T14:30:27.591Z,100626.75
2023-04-21T14:32:55.479Z,100614.97
2023-04-21T14:35:23.283Z,100607.28
2023-04-21T14:37:55.400Z,100600.78
2023-04-21T14:40:23.494Z,100602.72
2023-04-21T14:42:59.665Z,100601.94
2023-04-21T14:45:28.221Z,100601.91
2023-04-21T14:48:01.603Z,100597.44
2023-04-21T14:50:30.261Z,100603.50
2023-04-21T14:53:01.340Z,100606.34
2023-04-21T14:55:29.176Z,100606.63
2023-04-21T14:57:59.214Z,100603.06
2023-04-21T15:00:32.121Z,100596.56
2023-04-21T15:03:00.190Z,100601.72
2023-04-21T15:05:30.698Z,100602.06
2023-04-21T15:08:01.346Z,100602.03
2023-04-21T15:10:32.417Z,100601.25
2023-04-21T15:13:00.839Z,100602.88
2023-04-21T15:15:31.265Z,100600.88
2023-04-21T15:18:02.443Z,100606.31
2023-04-21T15:20:43.855Z,100605.19
2023-04-21T15:23:13.432Z,100598.69
2023-04-21T15:25:44.539Z,100593.00
2023-04-21T15:28:18.746Z,100595.38
2023-04-21T15:30:52.645Z,100594.22
2023-04-21T15:33:28.492Z,100595.47
2023-04-21T15:35:59.270Z,100591.00
2023-04-21T15:38:35.851Z,100580.94
2023-04-21T15:41:14.119Z,100588.69
2023-04-21T15:43:52.772Z,100594.75
2023-04-21T15:46:28.450Z,100598.00
2023-04-21T15:49:02.876Z,100602.91
2023-04-21T15:51:37.417Z,100593.94
2023-04-21T15:54:13.983Z,100589.88
2023-04-21T15:56:55.854Z,100594.38
2023-04-21T15:59:32.823Z,100599.59
2023-04-21T16:02:06.507Z,100604.50
2023-04-21T16:04:46.656Z,100603.31
2023-04-21T16:07:23.281Z,100600.91
2023-04-21T16:10:02.226Z,100588.38
2023-04-21T16:12:38.561Z,100592.00
2023-04-21T16:17:50.364Z,100598.88
2023-04-21T16:20:27.991Z,100600.94
2023-04-21T16:23:14.060Z,100596.50
2023-04-21T16:25:51.301Z,100589.63
2023-04-21T16:28:30.049Z,100594.91
2023-04-21T16:31:03.043Z,100592.47
2023-04-21T16:33:38.712Z,100599.72
2023-04-21T16:36:13.599Z,100599.34
2023-04-21T16:38:49.768Z,100600.94
2023-04-21T16:41:20.235Z,100591.66
2023-04-21T16:43:50.812Z,100592.47
2023-04-21T16:46:25.131Z,100596.09
2023-04-21T16:48:52.510Z,100588.41
2023-04-21T16:51:28.642Z,100586.75
2023-04-21T16:53:58.909Z,100591.22
2023-04-21T16:56:29.600Z,100596.88
2023-04-21T16:58:57.142Z,100594.06
2023-04-21T17:01:24.746Z,100599.69
2023-04-21T17:03:52.437Z,100595.66
2023-04-21T17:06:21.869Z,100596.03
2023-04-21T17:08:49.549Z,100598.06
2023-04-21T17:11:20.290Z,100596.84
2023-04-21T17:13:47.806Z,100607.34
2023-04-21T17:16:22.257Z,100600.91
2023-04-21T17:18:54.885Z,100614.59
2023-04-21T17:21:25.356Z,100617.84
2023-04-21T17:23:55.952Z,100607.72
2023-04-21T17:26:29.112Z,100613.38
2023-04-21T17:28:59.455Z,100615.41
2023-04-21T17:31:29.475Z,100618.66
2023-04-21T17:33:57.305Z,100618.66
2023-04-21T17:36:27.591Z,100613.38
2023-04-21T17:38:59.222Z,100610.16
2023-04-21T17:41:29.523Z,100621.47
2023-04-21T17:43:57.127Z,100621.03
2023-04-21T17:46:25.503Z,100618.22
2023-04-21T17:48:54.433Z,100621.03
2023-04-21T17:51:24.800Z,100621.03
2023-04-21T17:53:52.619Z,100629.09
2023-04-21T17:56:20.284Z,100629.09
2023-04-21T17:58:53.015Z,100638.78
2023-04-21T18:01:26.492Z,100629.94
2023-04-21T18:03:57.765Z,100625.09
2023-04-21T18:06:30.280Z,100629.50
2023-04-21T18:08:57.835Z,100631.91
2023-04-21T18:11:25.604Z,100639.59
2023-04-21T18:13:54.481Z,100632.72
2023-04-21T18:16:25.886Z,100635.53
2023-04-21T18:18:56.681Z,100632.31
2023-04-21T18:21:28.244Z,100633.50
2023-04-21T18:23:56.625Z,100635.16
2023-04-21T18:26:26.705Z,100640.78
2023-04-21T18:28:59.819Z,100640.38
2023-04-21T18:31:28.691Z,100643.19
2023-04-21T18:34:00.039Z,100647.25
2023-04-21T18:36:32.948Z,100653.69
2023-04-21T18:39:03.221Z,100651.25
2023-04-21T18:41:31.765Z,100655.28
2023-04-21T18:43:59.376Z,100652.47
2023-04-21T18:46:29.913Z,100658.53
2023-04-21T18:49:01.279Z,100655.69
2023-04-21T18:51:31.053Z,100656.88
2023-04-21T18:54:01.345Z,100665.78
2023-04-21T18:56:32.607Z,100660.53
2023-04-21T18:59:00.640Z,100658.91
2023-04-21T19:01:28.397Z,100665.78
2023-04-21T19:03:56.137Z,100667.38
2023-04-21T19:06:29.252Z,100656.50
2023-04-21T19:08:57.799Z,100658.91
2023-04-21T19:11:25.838Z,100654.47
2023-04-21T19:13:58.870Z,100660.13
2023-04-21T19:16:30.266Z,100666.56
2023-04-21T19:18:57.834Z,100662.09
2023-04-21T19:21:30.472Z,100662.94
2023-04-21T19:24:00.323Z,100663.34
2023-04-21T19:26:33.355Z,100664.53
2023-04-21T19:29:04.969Z,100671.00
2023-04-21T19:31:37.522Z,100673.41
2023-04-21T19:34:08.509Z,100677.03
2023-04-21T19:36:38.861Z,100675.03
2023-04-21T19:39:07.640Z,100674.22
2023-04-21T19:41:36.546Z,100685.88
2023-04-21T19:44:05.625Z,100682.66
2023-04-21T19:46:33.766Z,100669.75
2023-04-21T19:49:06.770Z,100681.47
2023-04-21T19:51:36.338Z,100677.84
2023-04-21T19:54:11.552Z,100685.47
2023-04-21T19:56:44.517Z,100691.88
2023-04-21T19:59:14.850Z,100689.06
2023-04-21T20:01:45.528Z,100680.56
2023-04-21T20:04:13.275Z,100692.28
2023-04-21T20:06:43.877Z,100689.91
2023-04-21T20:09:11.576Z,100683.03
2023-04-21T20:11:41.973Z,100679.78
2023-04-21T20:14:15.139Z,100694.69
2023-04-21T20:16:48.340Z,100690.25
2023-04-21T20:19:18.403Z,100696.72
2023-04-21T20:21:50.836Z,100687.84
2023-04-21T20:24:21.399Z,100685.41
2023-04-21T20:26:49.799Z,100691.84
2023-04-21T20:29:19.860Z,100691.06
2023-04-21T20:31:47.428Z,100693.09
2023-04-21T20:34:15.431Z,100691.47
2023-04-21T20:36:42.949Z,100698.72
2023-04-21T20:39:10.930Z,100695.88
2023-04-21T20:41:45.708Z,100697.50
2023-04-21T20:44:13.123Z,100699.53
2023-04-21T20:46:42.000Z,100704.38
2023-04-21T20:49:13.046Z,100699.13
2023-04-21T20:51:44.218Z,100696.28
2023-04-21T20:54:13.806Z,100699.94
2023-04-21T20:56:41.315Z,100700.72
2023-04-21T20:59:08.936Z,100695.88
2023-04-21T21:01:41.492Z,100706.38
2023-04-21T21:04:09.278Z,100697.47
2023-04-21T21:06:36.897Z,100694.66
2023-04-21T21:09:07.484Z,100700.72
2023-04-21T21:11:37.746Z,100704.75
2023-04-21T21:14:10.440Z,100706.75
2023-04-21T21:16:38.243Z,100707.16
2023-04-21T21:19:08.266Z,100719.25
2023-04-21T21:21:35.811Z,100715.63
2023-04-21T21:24:03.318Z,100724.88
2023-04-21T21:26:30.782Z,100724.91
2023-04-21T21:28:58.156Z,100729.72
2023-04-21T21:31:25.716Z,100730.91
2023-04-21T21:33:58.989Z,100720.03
2023-04-21T21:36:28.543Z,100724.84
2023-04-21T21:39:01.863Z,100733.31
2023-04-21T21:41:29.322Z,100731.31
2023-04-21T21:43:59.266Z,100738.13
2023-04-21T21:46:29.783Z,100736.16
2023-04-21T21:48:59.844Z,100724.84
2023-04-21T21:51:29.924Z,100730.50
2023-04-21T21:53:57.269Z,100734.50
2023-04-21T21:56:25.980Z,100730.50
2023-04-21T21:58:56.381Z,100730.06
2023-04-21T22:01:26.670Z,100730.50
2023-04-21T22:03:54.916Z,100734.13
2023-04-21T22:06:27.708Z,100736.50
2023-04-21T22:08:58.410Z,100731.66
2023-04-21T22:11:28.669Z,100740.53
2023-04-21T22:13:57.711Z,100735.28
2023-04-21T22:16:28.673Z,100738.91
2023-04-21T22:19:01.927Z,100731.66
2023-04-21T22:21:31.796Z,100737.69
2023-04-21T22:24:08.541Z,100738.50
2023-04-21T22:26:39.038Z,100734.88
2023-04-21T22:29:07.092Z,100734.47
2023-04-21T22:31:36.853Z,100735.25
2023-04-21T22:34:07.876Z,100735.25
2023-04-21T22:36:40.744Z,100739.69
2023-04-21T22:39:11.641Z,100729.59
2023-04-21T22:41:44.528Z,100735.25
2023-04-21T22:44:14.320Z,100728.81
2023-04-21T22:46:44.735Z,100733.22
2023-04-21T22:49:15.441Z,100734.03
2023-04-21T22:51:45.104Z,100739.28
2023-04-21T22:54:12.418Z,100744.13
2023-04-21T22:56:39.922Z,100740.09
2023-04-21T22:59:10.186Z,100729.59
2023-04-21T23:01:37.670Z,100735.69
2023-04-21T23:04:05.317Z,100727.59
2023-04-21T23:06:33.868Z,100732.03
2023-04-21T23:09:01.312Z,100738.84
2023-04-21T23:11:28.663Z,100732.41
2023-04-21T23:13:57.876Z,100735.22
2023-04-21T23:16:26.287Z,100734.44
2023-04-21T23:18:53.741Z,100736.00
2023-04-21T23:21:22.915Z,100736.00
2023-04-21T23:23:52.896Z,100734.81
2023-04-21T23:26:21.687Z,100741.28
2023-04-21T23:28:49.151Z,100736.44
2023-04-21T23:31:16.772Z,100738.47
2023-04-21T23:33:46.447Z,100728.34
2023-04-21T23:36:17.542Z,100736.00
2023-04-21T23:38:47.792Z,100729.94
2023-04-21T23:41:22.128Z,100726.72
2023-04-21T23:43:53.565Z,100723.13
2023-04-21T23:46:29.362Z,100724.69
2023-04-21T23:48:59.515Z,100728.72
2023-04-21T23:51:29.054Z,100726.28
2023-04-21T23:53:56.803Z,100728.31
2023-04-21T23:56:25.661Z,100723.06
2023-04-21T23:58:56.066Z,100719.00
